sensor_id;sensor_type;location;lat;lon;timestamp;temperature;humidity
78076;DHT22;67714;52.546;13.422;2023-02-23T00:01:16;6.7;87.4
78076;DHT22;67714;52.546;13.422;2023-02-23T00:03:18;6.7;87.6
78076;DHT22;67714;52.546;13.422;2023-02-23T00:05:20;6.7;87.5
78076;DHT22;67714;52.546;13.422;2023-02-23T00:07:22;6.7;87.8
78076;DHT22;67714;52.546;13.422;2023-02-23T00:09:23;6.7;87.9
78076;DHT22;67714;52.546;13.422;2023-02-23T00:11:24;6.7;88
78076;DHT22;67714;52.546;13.422;2023-02-23T00:13:25;6.7;87.7
78076;DHT22;67714;52.546;13.422;2023-02-23T00:15:27;6.8;87.7
78076;DHT22;67714;52.546;13.422;2023-02-23T00:17:28;6.8;87.6
78076;DHT22;67714;52.546;13.422;2023-02-23T00:19:31;6.8;87.5
78076;DHT22;67714;52.546;13.422;2023-02-23T00:21:32;6.8;87.2
78076;DHT22;67714;52.546;13.422;2023-02-23T00:23:33;6.8;87.2
78076;DHT22;67714;52.546;13.422;2023-02-23T00:25:36;6.8;87.3
78076;DHT22;67714;52.546;13.422;2023-02-23T00:27:37;6.8;87.3
78076;DHT22;67714;52.546;13.422;2023-02-23T00:29:39;6.8;87
78076;DHT22;67714;52.546;13.422;2023-02-23T00:31:40;6.8;87.2
78076;DHT22;67714;52.546;13.422;2023-02-23T00:33:41;6.8;87.3
78076;DHT22;67714;52.546;13.422;2023-02-23T00:35:42;6.7;87.5
78076;DHT22;67714;52.546;13.422;2023-02-23T00:37:45;6.7;87.4
78076;DHT22;67714;52.546;13.422;2023-02-23T00:39:46;6.7;87.6
78076;DHT22;67714;52.546;13.422;2023-02-23T00:41:48;6.7;87.4
78076;DHT22;67714;52.546;13.422;2023-02-23T00:43:50;6.7;87.2
78076;DHT22;67714;52.546;13.422;2023-02-23T00:45:53;6.7;87.3
78076;DHT22;67714;52.546;13.422;2023-02-23T00:47:54;6.7;87.4
78076;DHT22;67714;52.546;13.422;2023-02-23T00:49:56;6.7;87.4
78076;DHT22;67714;52.546;13.422;2023-02-23T00:51:57;6.7;87.3
78076;DHT22;67714;52.546;13.422;2023-02-23T00:53:59;6.7;87.5
78076;DHT22;67714;52.546;13.422;2023-02-23T00:56:02;6.7;87.4
78076;DHT22;67714;52.546;13.422;2023-02-23T00:58:04;6.7;87.5
78076;DHT22;67714;52.546;13.422;2023-02-23T01:00:07;6.6;87.6
78076;DHT22;67714;52.546;13.422;2023-02-23T01:02:09;6.6;87.8
78076;DHT22;67714;52.546;13.422;2023-02-23T01:04:11;6.6;87.8
78076;DHT22;67714;52.546;13.422;2023-02-23T01:06:14;6.5;88.1
78076;DHT22;67714;52.546;13.422;2023-02-23T01:08:16;6.6;88
78076;DHT22;67714;52.546;13.422;2023-02-23T01:10:17;6.6;87.9
78076;DHT22;67714;52.546;13.422;2023-02-23T01:12:18;6.6;87.9
78076;DHT22;67714;52.546;13.422;2023-02-23T01:14:19;6.6;87.7
78076;DHT22;67714;52.546;13.422;2023-02-23T01:16:23;6.6;87.9
78076;DHT22;67714;52.546;13.422;2023-02-23T01:18:24;6.6;87.9
78076;DHT22;67714;52.546;13.422;2023-02-23T01:20:25;6.5;88.1
78076;DHT22;67714;52.546;13.422;2023-02-23T01:22:27;6.5;88.2
78076;DHT22;67714;52.546;13.422;2023-02-23T01:24:28;6.5;88
78076;DHT22;67714;52.546;13.422;2023-02-23T01:26:31;6.5;88
78076;DHT22;67714;52.546;13.422;2023-02-23T01:28:32;6.5;88.2
78076;DHT22;67714;52.546;13.422;2023-02-23T01:30:34;6.5;88.2
78076;DHT22;67714;52.546;13.422;2023-02-23T01:32:35;6.5;88.1
78076;DHT22;67714;52.546;13.422;2023-02-23T01:34:37;6.5;88
78076;DHT22;67714;52.546;13.422;2023-02-23T01:36:39;6.5;88.3
78076;DHT22;67714;52.546;13.422;2023-02-23T01:38:41;6.5;88.2
78076;DHT22;67714;52.546;13.422;2023-02-23T01:40:42;6.4;88.3
78076;DHT22;67714;52.546;13.422;2023-02-23T01:42:45;6.4;88.2
78076;DHT22;67714;52.546;13.422;2023-02-23T01:45:17;6.4;88.2
78076;DHT22;67714;52.546;13.422;2023-02-23T01:47:19;6.4;88.3
78076;DHT22;67714;52.546;13.422;2023-02-23T01:49:22;6.4;88.5
78076;DHT22;67714;52.546;13.422;2023-02-23T01:51:27;6.4;88.6
78076;DHT22;67714;52.546;13.422;2023-02-23T01:53:32;6.3;88.4
78076;DHT22;67714;52.546;13.422;2023-02-23T01:55:35;6.3;88.5
78076;DHT22;67714;52.546;13.422;2023-02-23T01:57:36;6.3;88.7
78076;DHT22;67714;52.546;13.422;2023-02-23T01:59:39;6.3;88.7
78076;DHT22;67714;52.546;13.422;2023-02-23T02:01:42;6.3;88.5
78076;DHT22;67714;52.546;13.422;2023-02-23T02:03:46;6.3;88.7
78076;DHT22;67714;52.546;13.422;2023-02-23T02:05:49;6.3;88.6
78076;DHT22;67714;52.546;13.422;2023-02-23T02:07:51;6.3;88.6
78076;DHT22;67714;52.546;13.422;2023-02-23T02:09:54;6.2;88.9
78076;DHT22;67714;52.546;13.422;2023-02-23T02:11:56;6.2;89.2
78076;DHT22;67714;52.546;13.422;2023-02-23T02:14:00;6.2;89
78076;DHT22;67714;52.546;13.422;2023-02-23T02:16:09;6.2;89
78076;DHT22;67714;52.546;13.422;2023-02-23T02:18:16;6.3;88.7
78076;DHT22;67714;52.546;13.422;2023-02-23T02:20:28;6.2;88.9
78076;DHT22;67714;52.546;13.422;2023-02-23T02:22:43;6.2;88.9
78076;DHT22;67714;52.546;13.422;2023-02-23T02:25:06;6.2;89.1
78076;DHT22;67714;52.546;13.422;2023-02-23T02:27:19;6.1;89.2
78076;DHT22;67714;52.546;13.422;2023-02-23T02:29:35;6.1;89.2
78076;DHT22;67714;52.546;13.422;2023-02-23T02:31:50;6.1;89.2
78076;DHT22;67714;52.546;13.422;2023-02-23T02:34:03;6.1;89.1
78076;DHT22;67714;52.546;13.422;2023-02-23T02:36:20;6;89.4
78076;DHT22;67714;52.546;13.422;2023-02-23T02:38:28;6;89.8
78076;DHT22;67714;52.546;13.422;2023-02-23T02:40:35;6;89.8
78076;DHT22;67714;52.546;13.422;2023-02-23T02:42:54;6;89.8
78076;DHT22;67714;52.546;13.422;2023-02-23T02:45:02;6;90.1
78076;DHT22;67714;52.546;13.422;2023-02-23T02:47:10;6;90
78076;DHT22;67714;52.546;13.422;2023-02-23T02:49:17;6;90.1
78076;DHT22;67714;52.546;13.422;2023-02-23T02:51:23;6;89.9
78076;DHT22;67714;52.546;13.422;2023-02-23T02:53:34;6;89.8
78076;DHT22;67714;52.546;13.422;2023-02-23T02:55:38;6;90
78076;DHT22;67714;52.546;13.422;2023-02-23T02:57:40;6;90.1
78076;DHT22;67714;52.546;13.422;2023-02-23T02:59:45;6;90
78076;DHT22;67714;52.546;13.422;2023-02-23T03:01:47;6;89.9
78076;DHT22;67714;52.546;13.422;2023-02-23T03:03:49;6;89.8
78076;DHT22;67714;52.546;13.422;2023-02-23T03:05:53;6;89.9
78076;DHT22;67714;52.546;13.422;2023-02-23T03:08:01;6;89.8
78076;DHT22;67714;52.546;13.422;2023-02-23T03:10:08;6;89.8
78076;DHT22;67714;52.546;13.422;2023-02-23T03:12:20;6;89.8
78076;DHT22;67714;52.546;13.422;2023-02-23T03:14:28;6;89.7
78076;DHT22;67714;52.546;13.422;2023-02-23T03:16:36;5.9;90.1
78076;DHT22;67714;52.546;13.422;2023-02-23T03:18:49;5.9;90.1
78076;DHT22;67714;52.546;13.422;2023-02-23T03:20:58;5.9;90.3
78076;DHT22;67714;52.546;13.422;2023-02-23T03:23:09;5.9;90.4
78076;DHT22;67714;52.546;13.422;2023-02-23T03:25:19;5.8;90.5
78076;DHT22;67714;52.546;13.422;2023-02-23T03:27:27;5.8;90.7
78076;DHT22;67714;52.546;13.422;2023-02-23T03:29:31;5.8;91.1
78076;DHT22;67714;52.546;13.422;2023-02-23T03:31:38;5.8;90.7
78076;DHT22;67714;52.546;13.422;2023-02-23T03:33:43;5.8;90.7
78076;DHT22;67714;52.546;13.422;2023-02-23T03:35:50;5.8;90.7
78076;DHT22;67714;52.546;13.422;2023-02-23T03:37:59;5.8;91.1
78076;DHT22;67714;52.546;13.422;2023-02-23T03:40:05;5.8;90.9
78076;DHT22;67714;52.546;13.422;2023-02-23T03:42:13;5.8;90.9
78076;DHT22;67714;52.546;13.422;2023-02-23T03:44:17;5.8;91.1
78076;DHT22;67714;52.546;13.422;2023-02-23T03:46:22;5.8;90.9
78076;DHT22;67714;52.546;13.422;2023-02-23T03:48:26;5.8;91
78076;DHT22;67714;52.546;13.422;2023-02-23T03:50:32;5.8;91.1
78076;DHT22;67714;52.546;13.422;2023-02-23T03:52:39;5.8;91.2
78076;DHT22;67714;52.546;13.422;2023-02-23T03:54:44;5.8;91
78076;DHT22;67714;52.546;13.422;2023-02-23T03:56:49;5.8;91.1
78076;DHT22;67714;52.546;13.422;2023-02-23T03:58:54;5.8;90.9
78076;DHT22;67714;52.546;13.422;2023-02-23T04:01:00;5.8;90.9
78076;DHT22;67714;52.546;13.422;2023-02-23T04:03:04;5.8;90.8
78076;DHT22;67714;52.546;13.422;2023-02-23T04:05:11;5.7;90.9
78076;DHT22;67714;52.546;13.422;2023-02-23T04:07:17;5.7;91
78076;DHT22;67714;52.546;13.422;2023-02-23T04:09:19;5.7;91.3
78076;DHT22;67714;52.546;13.422;2023-02-23T04:11:26;5.6;91.5
78076;DHT22;67714;52.546;13.422;2023-02-23T04:13:29;5.6;91.5
78076;DHT22;67714;52.546;13.422;2023-02-23T04:15:33;5.6;91.6
78076;DHT22;67714;52.546;13.422;2023-02-23T04:17:36;5.6;91.5
78076;DHT22;67714;52.546;13.422;2023-02-23T04:19:37;5.6;91.5
78076;DHT22;67714;52.546;13.422;2023-02-23T04:21:38;5.6;91.8
78076;DHT22;67714;52.546;13.422;2023-02-23T04:23:41;5.5;92
78076;DHT22;67714;52.546;13.422;2023-02-23T04:25:42;5.5;91.9
78076;DHT22;67714;52.546;13.422;2023-02-23T04:27:44;5.5;92
78076;DHT22;67714;52.546;13.422;2023-02-23T04:29:45;5.5;91.9
78076;DHT22;67714;52.546;13.422;2023-02-23T04:31:46;5.5;91.9
78076;DHT22;67714;52.546;13.422;2023-02-23T04:33:47;5.4;92.2
78076;DHT22;67714;52.546;13.422;2023-02-23T04:35:50;5.4;92.4
78076;DHT22;67714;52.546;13.422;2023-02-23T04:37:52;5.4;92.3
78076;DHT22;67714;52.546;13.422;2023-02-23T04:39:53;5.5;92
78076;DHT22;67714;52.546;13.422;2023-02-23T04:41:54;5.4;92.2
78076;DHT22;67714;52.546;13.422;2023-02-23T04:43:55;5.4;92.3
78076;DHT22;67714;52.546;13.422;2023-02-23T04:45:57;5.4;92.3
78076;DHT22;67714;52.546;13.422;2023-02-23T04:47:58;5.3;92.5
78076;DHT22;67714;52.546;13.422;2023-02-23T04:49:59;5.3;92.7
78076;DHT22;67714;52.546;13.422;2023-02-23T04:52:00;5.3;92.8
78076;DHT22;67714;52.546;13.422;2023-02-23T04:54:02;5.3;92.6
78076;DHT22;67714;52.546;13.422;2023-02-23T04:56:04;5.3;92.6
78076;DHT22;67714;52.546;13.422;2023-02-23T04:58:05;5.3;92.5
78076;DHT22;67714;52.546;13.422;2023-02-23T05:00:07;5.3;92.5
78076;DHT22;67714;52.546;13.422;2023-02-23T05:02:08;5.2;93
78076;DHT22;67714;52.546;13.422;2023-02-23T05:04:10;5.2;93
78076;DHT22;67714;52.546;13.422;2023-02-23T05:06:11;5.2;93.2
78076;DHT22;67714;52.546;13.422;2023-02-23T05:08:12;5.2;93.3
78076;DHT22;67714;52.546;13.422;2023-02-23T05:10:14;5.3;93
78076;DHT22;67714;52.546;13.422;2023-02-23T05:12:15;5.3;92.6
78076;DHT22;67714;52.546;13.422;2023-02-23T05:14:16;5.3;92.5
78076;DHT22;67714;52.546;13.422;2023-02-23T05:16:18;5.3;92.4
78076;DHT22;67714;52.546;13.422;2023-02-23T05:18:19;5.2;92.8
78076;DHT22;67714;52.546;13.422;2023-02-23T05:20:20;5.2;92.5
78076;DHT22;67714;52.546;13.422;2023-02-23T05:22:21;5.2;92.8
78076;DHT22;67714;52.546;13.422;2023-02-23T05:24:23;5.2;92.5
78076;DHT22;67714;52.546;13.422;2023-02-23T05:26:24;5.2;92.5
78076;DHT22;67714;52.546;13.422;2023-02-23T05:28:25;5.2;92.6
78076;DHT22;67714;52.546;13.422;2023-02-23T05:30:26;5.2;92.6
78076;DHT22;67714;52.546;13.422;2023-02-23T05:32:28;5.2;92.2
78076;DHT22;67714;52.546;13.422;2023-02-23T05:34:29;5.2;92.3
78076;DHT22;67714;52.546;13.422;2023-02-23T05:36:30;5.1;92.5
78076;DHT22;67714;52.546;13.422;2023-02-23T05:38:31;5.1;92.8
78076;DHT22;67714;52.546;13.422;2023-02-23T05:40:32;5.1;92.8
78076;DHT22;67714;52.546;13.422;2023-02-23T05:42:34;5;92.8
78076;DHT22;67714;52.546;13.422;2023-02-23T05:44:35;5;92.9
78076;DHT22;67714;52.546;13.422;2023-02-23T05:46:37;5;93
78076;DHT22;67714;52.546;13.422;2023-02-23T05:48:39;5;93.1
78076;DHT22;67714;52.546;13.422;2023-02-23T05:50:40;5;92.9
78076;DHT22;67714;52.546;13.422;2023-02-23T05:52:42;5;92.6
78076;DHT22;67714;52.546;13.422;2023-02-23T05:54:43;5;92.9
78076;DHT22;67714;52.546;13.422;2023-02-23T05:56:44;4.9;93.3
78076;DHT22;67714;52.546;13.422;2023-02-23T05:58:46;4.9;93.1
78076;DHT22;67714;52.546;13.422;2023-02-23T06:00:47;4.9;93.4
78076;DHT22;67714;52.546;13.422;2023-02-23T06:02:48;4.8;93.5
78076;DHT22;67714;52.546;13.422;2023-02-23T06:04:50;4.8;93.6
78076;DHT22;67714;52.546;13.422;2023-02-23T06:06:51;4.9;93.4
78076;DHT22;67714;52.546;13.422;2023-02-23T06:08:52;4.8;93.5
78076;DHT22;67714;52.546;13.422;2023-02-23T06:10:53;4.8;93.9
78076;DHT22;67714;52.546;13.422;2023-02-23T06:12:54;4.8;93.9
78076;DHT22;67714;52.546;13.422;2023-02-23T06:14:55;4.8;94.2
78076;DHT22;67714;52.546;13.422;2023-02-23T06:16:57;4.7;94.2
78076;DHT22;67714;52.546;13.422;2023-02-23T06:18:58;4.7;94.3
78076;DHT22;67714;52.546;13.422;2023-02-23T06:21:00;4.7;94.8
78076;DHT22;67714;52.546;13.422;2023-02-23T06:23:03;4.8;94.4
78076;DHT22;67714;52.546;13.422;2023-02-23T06:25:05;4.8;94.5
78076;DHT22;67714;52.546;13.422;2023-02-23T06:27:06;4.8;94.6
78076;DHT22;67714;52.546;13.422;2023-02-23T06:29:07;4.8;94.5
78076;DHT22;67714;52.546;13.422;2023-02-23T06:31:09;4.8;94.6
78076;DHT22;67714;52.546;13.422;2023-02-23T06:33:10;4.9;94.4
78076;DHT22;67714;52.546;13.422;2023-02-23T06:35:13;4.9;94.1
78076;DHT22;67714;52.546;13.422;2023-02-23T06:37:14;4.9;94.1
78076;DHT22;67714;52.546;13.422;2023-02-23T06:39:15;5;93.8
78076;DHT22;67714;52.546;13.422;2023-02-23T06:41:16;5;93.7
78076;DHT22;67714;52.546;13.422;2023-02-23T06:43:42;5;93.5
78076;DHT22;67714;52.546;13.422;2023-02-23T06:45:45;5.1;93.7
78076;DHT22;67714;52.546;13.422;2023-02-23T06:47:46;5.1;93.7
78076;DHT22;67714;52.546;13.422;2023-02-23T06:49:47;5.1;93.9
78076;DHT22;67714;52.546;13.422;2023-02-23T06:51:49;5.2;93.7
78076;DHT22;67714;52.546;13.422;2023-02-23T06:53:50;5.3;93.6
78076;DHT22;67714;52.546;13.422;2023-02-23T06:55:54;5.4;93.4
78076;DHT22;67714;52.546;13.422;2023-02-23T06:57:55;5.4;92.8
78076;DHT22;67714;52.546;13.422;2023-02-23T06:59:56;5.5;92.5
78076;DHT22;67714;52.546;13.422;2023-02-23T07:01:58;5.6;91.8
78076;DHT22;67714;52.546;13.422;2023-02-23T07:03:59;5.7;91.7
78076;DHT22;67714;52.546;13.422;2023-02-23T07:06:01;5.7;91.8
78076;DHT22;67714;52.546;13.422;2023-02-23T07:08:02;5.8;91.7
78076;DHT22;67714;52.546;13.422;2023-02-23T07:10:04;5.9;91.1
78076;DHT22;67714;52.546;13.422;2023-02-23T07:12:05;6;90.5
78076;DHT22;67714;52.546;13.422;2023-02-23T07:14:09;6.1;89.9
78076;DHT22;67714;52.546;13.422;2023-02-23T07:16:10;6.2;89.7
78076;DHT22;67714;52.546;13.422;2023-02-23T07:18:11;6.3;89.5
78076;DHT22;67714;52.546;13.422;2023-02-23T07:20:13;6.4;89
78076;DHT22;67714;52.546;13.422;2023-02-23T07:22:15;6.5;88.4
78076;DHT22;67714;52.546;13.422;2023-02-23T07:24:16;6.6;88.4
78076;DHT22;67714;52.546;13.422;2023-02-23T07:26:17;6.7;88
78076;DHT22;67714;52.546;13.422;2023-02-23T07:28:18;6.7;87.6
78076;DHT22;67714;52.546;13.422;2023-02-23T07:30:24;6.8;87.3
78076;DHT22;67714;52.546;13.422;2023-02-23T07:32:25;6.8;86.9
78076;DHT22;67714;52.546;13.422;2023-02-23T07:34:26;6.9;87
78076;DHT22;67714;52.546;13.422;2023-02-23T07:36:28;6.9;87.1
78076;DHT22;67714;52.546;13.422;2023-02-23T07:38:29;7.1;86.7
78076;DHT22;67714;52.546;13.422;2023-02-23T07:40:30;7.1;86.3
78076;DHT22;67714;52.546;13.422;2023-02-23T07:42:32;7.2;85.6
78076;DHT22;67714;52.546;13.422;2023-02-23T07:44:33;7.2;85.1
78076;DHT22;67714;52.546;13.422;2023-02-23T07:46:34;7.2;84.7
78076;DHT22;67714;52.546;13.422;2023-02-23T07:48:35;7.1;84.9
78076;DHT22;67714;52.546;13.422;2023-02-23T07:50:38;7.1;84.8
78076;DHT22;67714;52.546;13.422;2023-02-23T07:52:40;7;85.1
78076;DHT22;67714;52.546;13.422;2023-02-23T07:54:43;6.9;84.6
78076;DHT22;67714;52.546;13.422;2023-02-23T07:56:44;6.8;85.3
78076;DHT22;67714;52.546;13.422;2023-02-23T07:58:45;6.7;85.6
78076;DHT22;67714;52.546;13.422;2023-02-23T08:00:46;6.7;85.8
78076;DHT22;67714;52.546;13.422;2023-02-23T08:02:48;6.7;86
78076;DHT22;67714;52.546;13.422;2023-02-23T08:04:49;6.8;86.1
78076;DHT22;67714;52.546;13.422;2023-02-23T08:06:50;6.8;86.3
78076;DHT22;67714;52.546;13.422;2023-02-23T08:08:51;6.8;86.3
78076;DHT22;67714;52.546;13.422;2023-02-23T08:10:58;6.9;86.3
78076;DHT22;67714;52.546;13.422;2023-02-23T08:12:59;7;85.9
78076;DHT22;67714;52.546;13.422;2023-02-23T08:15:01;7.1;85.4
78076;DHT22;67714;52.546;13.422;2023-02-23T08:17:03;7.2;85.4
78076;DHT22;67714;52.546;13.422;2023-02-23T08:19:04;7.3;85.2
78076;DHT22;67714;52.546;13.422;2023-02-23T08:21:05;7.4;84.8
78076;DHT22;67714;52.546;13.422;2023-02-23T08:23:07;7.5;84.5
78076;DHT22;67714;52.546;13.422;2023-02-23T08:25:08;7.6;84
78076;DHT22;67714;52.546;13.422;2023-02-23T08:27:10;7.6;83.6
78076;DHT22;67714;52.546;13.422;2023-02-23T08:29:11;7.6;83.5
78076;DHT22;67714;52.546;13.422;2023-02-23T08:31:13;7.6;83.3
78076;DHT22;67714;52.546;13.422;2023-02-23T08:33:15;7.7;83.5
78076;DHT22;67714;52.546;13.422;2023-02-23T08:35:16;7.7;83.7
78076;DHT22;67714;52.546;13.422;2023-02-23T08:37:17;7.8;83.1
78076;DHT22;67714;52.546;13.422;2023-02-23T08:39:19;7.8;82.8
78076;DHT22;67714;52.546;13.422;2023-02-23T08:41:45;7.8;82.8
78076;DHT22;67714;52.546;13.422;2023-02-23T08:43:46;7.8;82.9
78076;DHT22;67714;52.546;13.422;2023-02-23T08:45:47;7.9;82.4
78076;DHT22;67714;52.546;13.422;2023-02-23T08:47:48;7.8;82.3
78076;DHT22;67714;52.546;13.422;2023-02-23T08:49:50;7.8;82.5
78076;DHT22;67714;52.546;13.422;2023-02-23T08:51:52;7.8;82.8
78076;DHT22;67714;52.546;13.422;2023-02-23T08:53:54;7.8;83.3
78076;DHT22;67714;52.546;13.422;2023-02-23T08:55:56;7.9;83
78076;DHT22;67714;52.546;13.422;2023-02-23T08:57:58;7.9;83.1
78076;DHT22;67714;52.546;13.422;2023-02-23T08:59:59;7.9;82.8
78076;DHT22;67714;52.546;13.422;2023-02-23T09:02:02;7.9;82.5
78076;DHT22;67714;52.546;13.422;2023-02-23T09:04:05;8;82.7
78076;DHT22;67714;52.546;13.422;2023-02-23T09:06:09;8;82.3
78076;DHT22;67714;52.546;13.422;2023-02-23T09:08:13;8;82.4
78076;DHT22;67714;52.546;13.422;2023-02-23T09:10:17;8;82.3
78076;DHT22;67714;52.546;13.422;2023-02-23T09:12:18;8;82.3
78076;DHT22;67714;52.546;13.422;2023-02-23T09:14:20;8;82.6
78076;DHT22;67714;52.546;13.422;2023-02-23T09:16:21;8;82.5
78076;DHT22;67714;52.546;13.422;2023-02-23T09:18:23;8;82.4
78076;DHT22;67714;52.546;13.422;2023-02-23T09:20:24;8;82.4
78076;DHT22;67714;52.546;13.422;2023-02-23T09:22:28;8.1;83.1
78076;DHT22;67714;52.546;13.422;2023-02-23T09:24:32;8.2;82.5
78076;DHT22;67714;52.546;13.422;2023-02-23T09:26:33;8.2;82.3
78076;DHT22;67714;52.546;13.422;2023-02-23T09:28:36;8.3;82.8
78076;DHT22;67714;52.546;13.422;2023-02-23T09:30:38;8.3;82.4
78076;DHT22;67714;52.546;13.422;2023-02-23T09:32:40;8.4;82
78076;DHT22;67714;52.546;13.422;2023-02-23T09:34:42;8.5;82.1
78076;DHT22;67714;52.546;13.422;2023-02-23T09:36:44;8.6;81.6
78076;DHT22;67714;52.546;13.422;2023-02-23T09:38:47;8.6;81.6
78076;DHT22;67714;52.546;13.422;2023-02-23T09:40:51;8.7;81.4
78076;DHT22;67714;52.546;13.422;2023-02-23T09:42:57;8.8;81.3
78076;DHT22;67714;52.546;13.422;2023-02-23T09:45:06;8.8;80.8
78076;DHT22;67714;52.546;13.422;2023-02-23T09:47:20;8.9;80.8
78076;DHT22;67714;52.546;13.422;2023-02-23T09:49:32;9;80.7
78076;DHT22;67714;52.546;13.422;2023-02-23T09:51:40;9.1;79.9
78076;DHT22;67714;52.546;13.422;2023-02-23T09:53:48;9.2;79.8
78076;DHT22;67714;52.546;13.422;2023-02-23T09:55:55;9.2;80.1
78076;DHT22;67714;52.546;13.422;2023-02-23T09:58:03;9.4;79.9
78076;DHT22;67714;52.546;13.422;2023-02-23T10:00:12;9.5;79.9
78076;DHT22;67714;52.546;13.422;2023-02-23T10:02:20;9.6;79
78076;DHT22;67714;52.546;13.422;2023-02-23T10:04:27;9.7;79
78076;DHT22;67714;52.546;13.422;2023-02-23T10:06:30;9.8;79.5
78076;DHT22;67714;52.546;13.422;2023-02-23T10:08:41;10;78.6
78076;DHT22;67714;52.546;13.422;2023-02-23T10:10:46;10.2;77.8
78076;DHT22;67714;52.546;13.422;2023-02-23T10:12:53;10.2;77.8
78076;DHT22;67714;52.546;13.422;2023-02-23T10:15:15;10.2;77.5
78076;DHT22;67714;52.546;13.422;2023-02-23T10:17:27;10.4;77.5
78076;DHT22;67714;52.546;13.422;2023-02-23T10:19:32;10.5;77.2
78076;DHT22;67714;52.546;13.422;2023-02-23T10:21:39;10.6;76.7
78076;DHT22;67714;52.546;13.422;2023-02-23T10:23:43;10.6;76
78076;DHT22;67714;52.546;13.422;2023-02-23T10:25:47;10.6;76.3
78076;DHT22;67714;52.546;13.422;2023-02-23T10:27:50;10.6;76.3
78076;DHT22;67714;52.546;13.422;2023-02-23T10:29:53;10.6;76.6
78076;DHT22;67714;52.546;13.422;2023-02-23T10:31:57;10.6;76.2
78076;DHT22;67714;52.546;13.422;2023-02-23T10:34:03;10.5;76.1
78076;DHT22;67714;52.546;13.422;2023-02-23T10:36:11;10.4;76.6
78076;DHT22;67714;52.546;13.422;2023-02-23T10:38:15;10.5;76.8
78076;DHT22;67714;52.546;13.422;2023-02-23T10:40:18;10.6;77
78076;DHT22;67714;52.546;13.422;2023-02-23T10:42:22;10.7;76.9
78076;DHT22;67714;52.546;13.422;2023-02-23T10:44:24;10.9;76.6
78076;DHT22;67714;52.546;13.422;2023-02-23T10:46:30;10.9;75.9
78076;DHT22;67714;52.546;13.422;2023-02-23T10:48:36;10.9;75.9
78076;DHT22;67714;52.546;13.422;2023-02-23T10:50:39;11;76.6
78076;DHT22;67714;52.546;13.422;2023-02-23T10:52:42;11.1;76.3
78076;DHT22;67714;52.546;13.422;2023-02-23T10:54:47;11.2;76
78076;DHT22;67714;52.546;13.422;2023-02-23T10:56:48;11.3;76
78076;DHT22;67714;52.546;13.422;2023-02-23T10:58:51;11.4;75.7
78076;DHT22;67714;52.546;13.422;2023-02-23T11:00:55;11.4;75.6
78076;DHT22;67714;52.546;13.422;2023-02-23T11:02:56;11.5;75.5
78076;DHT22;67714;52.546;13.422;2023-02-23T11:04:59;11.5;75.4
78076;DHT22;67714;52.546;13.422;2023-02-23T11:07:06;11.6;75.4
78076;DHT22;67714;52.546;13.422;2023-02-23T11:09:17;11.6;75
78076;DHT22;67714;52.546;13.422;2023-02-23T11:11:25;11.6;75.2
78076;DHT22;67714;52.546;13.422;2023-02-23T11:13:28;11.7;74.6
78076;DHT22;67714;52.546;13.422;2023-02-23T11:15:34;11.7;74.8
78076;DHT22;67714;52.546;13.422;2023-02-23T11:17:37;11.6;75.4
78076;DHT22;67714;52.546;13.422;2023-02-23T11:19:40;11.5;76
78076;DHT22;67714;52.546;13.422;2023-02-23T11:21:49;11.6;76.1
78076;DHT22;67714;52.546;13.422;2023-02-23T11:23:53;11.7;76.3
78076;DHT22;67714;52.546;13.422;2023-02-23T11:25:59;11.7;75.7
78076;DHT22;67714;52.546;13.422;2023-02-23T11:28:01;11.7;75.7
78076;DHT22;67714;52.546;13.422;2023-02-23T11:30:04;11.6;76
78076;DHT22;67714;52.546;13.422;2023-02-23T11:32:08;11.7;76.3
78076;DHT22;67714;52.546;13.422;2023-02-23T11:34:19;11.8;76.1
78076;DHT22;67714;52.546;13.422;2023-02-23T11:36:26;11.8;75.9
78076;DHT22;67714;52.546;13.422;2023-02-23T11:38:29;11.9;75.9
78076;DHT22;67714;52.546;13.422;2023-02-23T11:40:31;12;76
78076;DHT22;67714;52.546;13.422;2023-02-23T11:42:33;12.2;74.8
78076;DHT22;67714;52.546;13.422;2023-02-23T11:44:34;12.2;74.2
78076;DHT22;67714;52.546;13.422;2023-02-23T11:46:36;12.1;74.4
78076;DHT22;67714;52.546;13.422;2023-02-23T11:48:43;12.2;74.7
78076;DHT22;67714;52.546;13.422;2023-02-23T11:50:48;12.3;74.6
78076;DHT22;67714;52.546;13.422;2023-02-23T11:52:53;12.4;74.2
78076;DHT22;67714;52.546;13.422;2023-02-23T11:54:57;12.5;74.3
78076;DHT22;67714;52.546;13.422;2023-02-23T11:56:59;12.6;74.1
78076;DHT22;67714;52.546;13.422;2023-02-23T11:59:03;12.6;73.9
78076;DHT22;67714;52.546;13.422;2023-02-23T12:01:07;12.7;73.7
78076;DHT22;67714;52.546;13.422;2023-02-23T12:03:16;12.8;72.9
78076;DHT22;67714;52.546;13.422;2023-02-23T12:05:22;12.9;72.5
78076;DHT22;67714;52.546;13.422;2023-02-23T12:07:30;12.9;72.7
78076;DHT22;67714;52.546;13.422;2023-02-23T12:09:33;13;71.7
78076;DHT22;67714;52.546;13.422;2023-02-23T12:11:38;12.9;71.7
78076;DHT22;67714;52.546;13.422;2023-02-23T12:13:43;13;72.3
78076;DHT22;67714;52.546;13.422;2023-02-23T12:15:49;13;72.6
78076;DHT22;67714;52.546;13.422;2023-02-23T12:17:56;13.2;72.1
78076;DHT22;67714;52.546;13.422;2023-02-23T12:20:03;13.3;72
78076;DHT22;67714;52.546;13.422;2023-02-23T12:22:10;13.4;71.1
78076;DHT22;67714;52.546;13.422;2023-02-23T12:24:15;13.5;71.4
78076;DHT22;67714;52.546;13.422;2023-02-23T12:26:19;13.6;70.6
78076;DHT22;67714;52.546;13.422;2023-02-23T12:28:25;13.6;69.6
78076;DHT22;67714;52.546;13.422;2023-02-23T12:30:33;13.5;70.3
78076;DHT22;67714;52.546;13.422;2023-02-23T12:32:43;13.3;70.8
78076;DHT22;67714;52.546;13.422;2023-02-23T12:34:48;13.4;70.9
78076;DHT22;67714;52.546;13.422;2023-02-23T12:36:56;13.3;71.1
78076;DHT22;67714;52.546;13.422;2023-02-23T12:39:00;13.2;71.3
78076;DHT22;67714;52.546;13.422;2023-02-23T12:41:09;13.3;71.8
78076;DHT22;67714;52.546;13.422;2023-02-23T12:43:14;13.4;71.7
78076;DHT22;67714;52.546;13.422;2023-02-23T12:45:21;13.6;71
78076;DHT22;67714;52.546;13.422;2023-02-23T12:47:28;13.5;70.8
78076;DHT22;67714;52.546;13.422;2023-02-23T12:49:35;13.6;71.3
78076;DHT22;67714;52.546;13.422;2023-02-23T12:51:49;13.6;71.2
78076;DHT22;67714;52.546;13.422;2023-02-23T12:53:51;13.6;70.8
78076;DHT22;67714;52.546;13.422;2023-02-23T12:55:59;13.5;71.4
78076;DHT22;67714;52.546;13.422;2023-02-23T12:58:05;13.4;71.5
78076;DHT22;67714;52.546;13.422;2023-02-23T13:01:15;13.3;71.6
78076;DHT22;67714;52.546;13.422;2023-02-23T13:03:16;13.3;72.1
78076;DHT22;67714;52.546;13.422;2023-02-23T13:05:24;13.3;72.5
78076;DHT22;67714;52.546;13.422;2023-02-23T13:07:29;13.3;72.6
78076;DHT22;67714;52.546;13.422;2023-02-23T13:09:42;13.2;72.9
78076;DHT22;67714;52.546;13.422;2023-02-23T13:11:52;13.2;73.2
78076;DHT22;67714;52.546;13.422;2023-02-23T13:13:58;13.2;73.3
78076;DHT22;67714;52.546;13.422;2023-02-23T13:16:08;13.3;73
78076;DHT22;67714;52.546;13.422;2023-02-23T13:18:17;13.3;73.1
78076;DHT22;67714;52.546;13.422;2023-02-23T13:20:23;13.2;73.6
78076;DHT22;67714;52.546;13.422;2023-02-23T13:22:29;13.2;74.1
78076;DHT22;67714;52.546;13.422;2023-02-23T13:24:35;13.2;74
78076;DHT22;67714;52.546;13.422;2023-02-23T13:26:41;13.3;74.2
78076;DHT22;67714;52.546;13.422;2023-02-23T13:28:51;13.2;74.4
78076;DHT22;67714;52.546;13.422;2023-02-23T13:30:55;13.2;74.6
78076;DHT22;67714;52.546;13.422;2023-02-23T13:32:56;13.3;74.6